Time;durP1;ratioP1;P1;durP2;ratioP2;P2;SDS_P1;SDS_P2;PMS_P1;PMS_P2;Temp;Humidity;BMP_temperature;BMP_pressure;BME280_temperature;BME280_humidity;BME280_pressure;Samples;Min_cycle;Max_cycle;Signal;HPM_P1;HPM_P2
2023/10/05 00:02:00;;;;;;;0.20;0.10;;;;;;;;;;5020024;23;20046;-79
2023/10/05 00:04:34;;;;;;;0.20;0.00;;;;;;;;;;5005522;28;20565;-78
2023/10/05 00:07:00;;;;;;;0.20;0.10;;;;;;;;;;5007725;28;20045;-78
2023/10/05 00:09:26;;;;;;;0.20;0.00;;;;;;;;;;4989559;28;20029;-79
2023/10/05 00:11:55;;;;;;;0.20;0.10;;;;;;;;;;5010269;28;20455;-78
2023/10/05 00:14:21;;;;;;;0.20;0.00;;;;;;;;;;5003937;28;20052;-79
2023/10/05 00:16:48;;;;;;;1.00;0.75;;;;;;;;;;5006920;28;20037;-79
2023/10/05 00:19:16;;;;;;;0.20;0.10;;;;;;;;;;4990455;28;20037;-78
2023/10/05 00:21:52;;;;;;;0.20;0.00;;;;;;;;;;5005904;28;20073;-79
2023/10/05 00:24:30;;;;;;;0.20;0.00;;;;;;;;;;5004118;28;20347;-78
2023/10/05 00:26:56;;;;;;;0.20;0.10;;;;;;;;;;5005899;28;20395;-78
2023/10/05 00:29:28;;;;;;;0.20;0.10;;;;;;;;;;4989739;28;20041;-77
2023/10/05 00:31:58;;;;;;;0.20;0.10;;;;;;;;;;5007707;28;20080;-78
2023/10/05 00:34:33;;;;;;;0.25;0.25;;;;;;;;;;5005067;28;20042;-77
2023/10/05 00:37:00;;;;;;;0.20;0.08;;;;;;;;;;5007752;28;20046;-80
2023/10/05 00:39:27;;;;;;;7.20;0.20;;;;;;;;;;5005482;28;20050;-79
2023/10/05 00:44:30;;;;;;;0.20;0.03;;;;;;;;;;5006351;28;20060;-79
2023/10/05 00:47:00;;;;;;;0.20;0.10;;;;;;;;;;5007666;28;20053;-79
2023/10/05 00:49:29;;;;;;;0.20;0.00;;;;;;;;;;4987094;28;20103;-78
2023/10/05 00:52:11;;;;;;;0.20;0.10;;;;;;;;;;5016541;28;20046;-79
2023/10/05 00:54:40;;;;;;;0.20;0.00;;;;;;;;;;4989227;28;20065;-78
2023/10/05 00:57:09;;;;;;;0.20;0.00;;;;;;;;;;5008466;28;20075;-77
2023/10/05 00:59:36;;;;;;;0.20;0.00;;;;;;;;;;5004932;28;20443;-78
2023/10/05 01:04:34;;;;;;;0.20;0.10;;;;;;;;;;5005083;28;20046;-79
2023/10/05 01:07:17;;;;;;;0.38;0.25;;;;;;;;;;5016499;28;20046;-79
2023/10/05 01:14:58;;;;;;;0.20;0.10;;;;;;;;;;5003837;28;20046;-79
2023/10/05 01:17:27;;;;;;;0.20;0.00;;;;;;;;;;4997692;28;20644;-79
2023/10/05 01:19:56;;;;;;;0.20;0.10;;;;;;;;;;4985499;28;20868;-78
2023/10/05 01:22:24;;;;;;;0.20;0.10;;;;;;;;;;4985341;28;20038;-78
2023/10/05 01:24:50;;;;;;;0.20;0.05;;;;;;;;;;5005085;28;20053;-80
2023/10/05 01:27:17;;;;;;;0.20;0.10;;;;;;;;;;5001151;28;20046;-78
2023/10/05 01:29:43;;;;;;;0.20;0.00;;;;;;;;;;4984675;28;20121;-79
2023/10/05 01:32:11;;;;;;;0.20;0.00;;;;;;;;;;4988147;28;20072;-78
2023/10/05 01:34:37;;;;;;;0.20;0.10;;;;;;;;;;5006172;28;20521;-78
2023/10/05 01:37:04;;;;;;;0.20;0.00;;;;;;;;;;5003760;28;20741;-78
2023/10/05 01:39:35;;;;;;;0.20;0.00;;;;;;;;;;5005145;28;20049;-78
2023/10/05 01:42:05;;;;;;;0.20;0.00;;;;;;;;;;5006386;28;20121;-77
2023/10/05 01:44:35;;;;;;;0.20;0.00;;;;;;;;;;5008413;28;20065;-78
2023/10/05 01:47:02;;;;;;;0.20;0.10;;;;;;;;;;5004118;28;20062;-78
2023/10/05 01:49:28;;;;;;;0.20;0.10;;;;;;;;;;4982337;28;20116;-78
2023/10/05 01:51:56;;;;;;;0.20;0.10;;;;;;;;;;4987412;28;20552;-78
2023/10/05 01:54:26;;;;;;;0.20;0.20;;;;;;;;;;4985016;28;20129;-78
2023/10/05 01:56:54;;;;;;;0.20;0.00;;;;;;;;;;4987314;28;20045;-78
2023/10/05 01:59:21;;;;;;;0.20;0.00;;;;;;;;;;4982457;28;20099;-79
2023/10/05 02:01:47;;;;;;;0.82;0.40;;;;;;;;;;4947829;28;1170746;-79
2023/10/05 02:04:17;;;;;;;0.20;0.00;;;;;;;;;;5005437;28;20083;-78
2023/10/05 02:06:48;;;;;;;0.20;0.00;;;;;;;;;;4981515;28;20490;-79
2023/10/05 02:09:19;;;;;;;0.20;0.10;;;;;;;;;;4988102;28;20054;-77
2023/10/05 02:11:47;;;;;;;0.20;0.10;;;;;;;;;;5002562;28;20048;-78
2023/10/05 02:14:14;;;;;;;0.20;0.00;;;;;;;;;;4999674;28;20065;-80
2023/10/05 02:16:41;;;;;;;0.47;0.40;;;;;;;;;;4980947;28;20092;-78
2023/10/05 02:19:07;;;;;;;0.20;0.17;;;;;;;;;;5018169;28;20050;-78
2023/10/05 02:21:36;;;;;;;0.85;0.65;;;;;;;;;;5005315;28;20053;-79
2023/10/05 02:24:10;;;;;;;0.20;0.00;;;;;;;;;;4983355;28;20558;-79
2023/10/05 02:26:37;;;;;;;0.20;0.00;;;;;;;;;;4999582;28;20046;-80
2023/10/05 02:29:15;;;;;;;0.20;0.10;;;;;;;;;;4990974;28;20075;-79
2023/10/05 02:31:56;;;;;;;0.25;0.15;;;;;;;;;;4982946;28;20568;-80
2023/10/05 02:34:22;;;;;;;0.20;0.10;;;;;;;;;;5003639;28;20048;-78
2023/10/05 02:36:50;;;;;;;26.40;0.63;;;;;;;;;;4990356;28;20157;-78
2023/10/05 02:39:21;;;;;;;0.20;0.05;;;;;;;;;;4993832;28;20049;-79
2023/10/05 02:41:50;;;;;;;0.20;0.10;;;;;;;;;;5012899;28;20053;-81
2023/10/05 02:46:48;;;;;;;0.20;0.03;;;;;;;;;;5010696;28;20046;-78
2023/10/05 02:49:18;;;;;;;0.20;0.10;;;;;;;;;;5025864;28;20049;-78
2023/10/05 02:51:44;;;;;;;0.20;0.20;;;;;;;;;;5009318;28;20037;-78
2023/10/05 02:54:12;;;;;;;0.20;0.10;;;;;;;;;;5017286;28;20050;-78
2023/10/05 02:56:40;;;;;;;0.20;0.10;;;;;;;;;;4991122;28;20120;-80
2023/10/05 02:59:14;;;;;;;0.20;0.10;;;;;;;;;;5028649;28;20061;-79
2023/10/05 03:01:41;;;;;;;0.20;0.10;;;;;;;;;;4995651;28;20045;-78
2023/10/05 03:06:40;;;;;;;0.50;0.47;;;;;;;;;;5015755;28;20110;-79
2023/10/05 03:09:10;;;;;;;0.20;0.00;;;;;;;;;;5011859;28;20046;-78
2023/10/05 03:11:49;;;;;;;0.20;0.10;;;;;;;;;;5011536;28;20057;-79
2023/10/05 03:14:18;;;;;;;0.20;0.08;;;;;;;;;;5013148;28;20046;-78
2023/10/05 03:16:47;;;;;;;0.20;0.08;;;;;;;;;;4990354;28;20504;-78
2023/10/05 03:19:18;;;;;;;0.20;0.10;;;;;;;;;;4996314;28;20612;-79
2023/10/05 03:21:45;;;;;;;0.20;0.00;;;;;;;;;;4990966;28;20076;-79
2023/10/05 03:24:14;;;;;;;0.20;0.00;;;;;;;;;;5010708;28;20068;-79
2023/10/05 03:26:41;;;;;;;0.20;0.05;;;;;;;;;;5013253;28;20430;-78
2023/10/05 03:29:11;;;;;;;0.20;0.10;;;;;;;;;;4988877;28;20401;-79
2023/10/05 03:31:43;;;;;;;0.20;0.10;;;;;;;;;;4988825;28;20056;-78
2023/10/05 03:34:09;;;;;;;0.20;0.03;;;;;;;;;;5006237;28;20050;-78
2023/10/05 03:36:36;;;;;;;0.20;0.10;;;;;;;;;;5009823;28;20254;-79
2023/10/05 03:39:03;;;;;;;0.20;0.03;;;;;;;;;;5008075;28;20081;-81
2023/10/05 03:41:30;;;;;;;0.20;0.08;;;;;;;;;;5009694;28;20124;-81
2023/10/05 03:44:00;;;;;;;0.20;0.00;;;;;;;;;;5009005;28;20123;-80
2023/10/05 03:46:27;;;;;;;0.20;0.10;;;;;;;;;;5009454;28;20042;-77
2023/10/05 03:48:59;;;;;;;0.20;0.05;;;;;;;;;;4992350;28;20045;-79
2023/10/05 03:51:26;;;;;;;0.20;0.00;;;;;;;;;;4986639;28;20041;-78
2023/10/05 03:53:52;;;;;;;0.20;0.00;;;;;;;;;;5009302;28;20099;-78
2023/10/05 03:56:19;;;;;;;0.65;0.08;;;;;;;;;;5007499;28;20093;-79
2023/10/05 03:58:46;;;;;;;0.20;0.10;;;;;;;;;;5004093;28;20113;-81
2023/10/05 04:01:12;;;;;;;0.20;0.10;;;;;;;;;;5002389;28;20046;-78
2023/10/05 04:03:46;;;;;;;0.20;0.00;;;;;;;;;;5009551;28;20506;-79
2023/10/05 04:06:19;;;;;;;0.20;0.00;;;;;;;;;;4990197;28;20042;-79
2023/10/05 04:08:46;;;;;;;0.20;0.10;;;;;;;;;;5002899;28;20104;-80
2023/10/05 04:11:13;;;;;;;0.20;0.05;;;;;;;;;;4985746;28;20076;-79
2023/10/05 04:13:39;;;;;;;0.20;0.00;;;;;;;;;;5002420;28;20457;-79
2023/10/05 04:16:09;;;;;;;0.20;0.08;;;;;;;;;;4996832;28;20049;-78
2023/10/05 04:18:35;;;;;;;0.20;0.10;;;;;;;;;;5002853;28;20050;-79
2023/10/05 04:21:01;;;;;;;0.20;0.10;;;;;;;;;;4996397;28;20044;-79
2023/10/05 04:23:28;;;;;;;0.60;0.57;;;;;;;;;;4983149;28;20381;-80
2023/10/05 04:25:57;;;;;;;0.20;0.03;;;;;;;;;;5008943;28;20061;-78
2023/10/05 04:28:32;;;;;;;0.20;0.10;;;;;;;;;;5004000;28;20121;-79
2023/10/05 04:30:59;;;;;;;0.20;0.00;;;;;;;;;;5011175;28;20034;-80
2023/10/05 04:33:26;;;;;;;0.20;0.00;;;;;;;;;;5008874;28;20046;-78
2023/10/05 04:35:53;;;;;;;0.20;0.10;;;;;;;;;;4991576;28;20125;-78
2023/10/05 04:38:22;;;;;;;0.20;0.10;;;;;;;;;;4990576;28;20145;-79
2023/10/05 04:40:52;;;;;;;0.35;0.35;;;;;;;;;;5009289;28;20046;-79
2023/10/05 04:43:21;;;;;;;0.20;0.00;;;;;;;;;;5003308;28;20046;-80
2023/10/05 04:45:48;;;;;;;0.20;0.10;;;;;;;;;;5007458;28;20099;-79
2023/10/05 04:48:14;;;;;;;0.20;0.03;;;;;;;;;;5007255;28;20042;-80
2023/10/05 04:50:41;;;;;;;0.20;0.10;;;;;;;;;;5005699;28;20033;-78
2023/10/05 04:53:11;;;;;;;0.20;0.00;;;;;;;;;;5004082;28;20733;-80
2023/10/05 04:55:45;;;;;;;0.20;0.10;;;;;;;;;;5006312;28;20048;-80
2023/10/05 05:03:47;;;;;;;0.20;0.10;;;;;;;;;;5002735;28;20076;-79
2023/10/05 05:06:14;;;;;;;0.20;0.08;;;;;;;;;;4990567;28;20093;-80
2023/10/05 05:08:40;;;;;;;0.20;0.00;;;;;;;;;;4991962;28;20041;-82
2023/10/05 05:11:19;;;;;;;0.20;0.10;;;;;;;;;;5007294;28;20061;-79
2023/10/05 05:13:48;;;;;;;0.20;0.00;;;;;;;;;;5006381;28;20050;-80
2023/10/05 05:16:15;;;;;;;0.20;0.10;;;;;;;;;;5023921;28;20041;-80
2023/10/05 05:18:42;;;;;;;0.20;0.17;;;;;;;;;;5010419;28;20441;-79
2023/10/05 05:21:08;;;;;;;0.20;0.10;;;;;;;;;;5009755;28;20053;-78
2023/10/05 05:23:35;;;;;;;0.20;0.10;;;;;;;;;;5012120;28;20114;-78
2023/10/05 05:26:03;;;;;;;0.20;0.00;;;;;;;;;;5007102;28;20046;-80
2023/10/05 05:28:29;;;;;;;0.20;0.10;;;;;;;;;;5010552;28;20383;-79
2023/10/05 05:30:55;;;;;;;0.20;0.00;;;;;;;;;;5009412;28;20046;-80
2023/10/05 05:33:22;;;;;;;0.20;0.10;;;;;;;;;;4989391;28;20100;-81
2023/10/05 05:35:49;;;;;;;0.28;0.13;;;;;;;;;;4990987;28;20037;-79
2023/10/05 05:38:15;;;;;;;0.30;0.20;;;;;;;;;;5010287;28;20053;-78
2023/10/05 05:40:43;;;;;;;0.20;0.10;;;;;;;;;;5005004;28;20394;-79
2023/10/05 05:43:11;;;;;;;0.20;0.08;;;;;;;;;;5024622;28;20105;-78
2023/10/05 05:45:43;;;;;;;0.20;0.00;;;;;;;;;;5006884;28;20605;-82
2023/10/05 05:48:13;;;;;;;0.20;0.10;;;;;;;;;;5001663;28;20053;-80
2023/10/05 05:50:42;;;;;;;0.45;0.45;;;;;;;;;;5001714;28;20387;-80
2023/10/05 05:53:11;;;;;;;0.20;0.05;;;;;;;;;;5006706;28;20545;-80
2023/10/05 05:55:41;;;;;;;0.20;0.10;;;;;;;;;;4991920;28;20042;-81
2023/10/05 05:58:07;;;;;;;0.20;0.00;;;;;;;;;;5008386;28;20049;-80
2023/10/05 06:00:33;;;;;;;0.20;0.00;;;;;;;;;;5002705;22;20508;-86
2023/10/05 06:03:10;;;;;;;0.45;0.45;;;;;;;;;;4958752;28;20041;-86
2023/10/05 06:05:44;;;;;;;0.20;0.00;;;;;;;;;;4972455;28;20097;-85
2023/10/05 06:08:30;;;;;;;;;;;;;;;;;;;;;
2023/10/05 06:11:15;;;;;;;0.20;0.00;;;;;;;;;;5009051;23;20130;-83
2023/10/05 06:13:45;;;;;;;0.20;0.10;;;;;;;;;;5006973;28;21069;-85
2023/10/05 06:16:13;;;;;;;0.20;0.00;;;;;;;;;;5002045;28;20053;-86
2023/10/05 06:18:48;;;;;;;0.20;0.10;;;;;;;;;;5004153;28;20040;-83
2023/10/05 06:21:30;;;;;;;0.20;0.10;;;;;;;;;;5002791;28;20576;-85
2023/10/05 06:24:02;;;;;;;0.20;0.10;;;;;;;;;;5003957;28;20038;-84
2023/10/05 06:26:38;;;;;;;2.15;1.10;;;;;;;;;;5025750;28;20029;-86
2023/10/05 06:29:15;;;;;;;0.20;0.10;;;;;;;;;;5023993;28;20034;-85
2023/10/05 06:34:55;;;;;;;0.20;0.00;;;;;;;;;;4976486;28;20157;-85
2023/10/05 06:37:21;;;;;;;0.20;0.10;;;;;;;;;;4976066;28;20041;-85
2023/10/05 06:39:50;;;;;;;0.20;0.10;;;;;;;;;;4998769;28;20061;-86
2023/10/05 06:42:17;;;;;;;0.20;0.10;;;;;;;;;;5027536;28;20523;-84
2023/10/05 06:44:47;;;;;;;0.20;0.00;;;;;;;;;;5026588;28;20053;-86
2023/10/05 06:47:35;;;;;;;0.20;0.10;;;;;;;;;;5012636;28;20070;-82
2023/10/05 06:50:08;;;;;;;0.20;0.10;;;;;;;;;;5020627;28;20474;-85
2023/10/05 06:56:20;;;;;;;0.20;0.10;;;;;;;;;;4948330;28;20051;-88
2023/10/05 06:58:52;;;;;;;0.20;0.10;;;;;;;;;;4948720;28;20045;-84
2023/10/05 07:01:24;;;;;;;0.20;0.20;;;;;;;;;;5011872;28;20052;-85
2023/10/05 07:03:55;;;;;;;0.20;0.10;;;;;;;;;;5024959;28;20053;-85
2023/10/05 07:06:29;;;;;;;0.20;0.08;;;;;;;;;;5023624;28;20041;-87
2023/10/05 07:09:04;;;;;;;0.20;0.10;;;;;;;;;;5025372;28;20048;-87
2023/10/05 07:11:32;;;;;;;0.20;0.10;;;;;;;;;;5024592;28;21023;-86
2023/10/05 07:14:01;;;;;;;0.20;0.10;;;;;;;;;;5020080;28;20041;-88
2023/10/05 07:16:30;;;;;;;0.20;0.00;;;;;;;;;;5012780;28;20411;-84
2023/10/05 07:19:07;;;;;;;0.20;0.00;;;;;;;;;;5026928;28;20044;-83
2023/10/05 07:21:36;;;;;;;0.20;0.10;;;;;;;;;;5011497;28;20400;-84
2023/10/05 07:24:08;;;;;;;0.20;0.10;;;;;;;;;;5011722;28;20049;-84
2023/10/05 07:26:43;;;;;;;0.63;0.32;;;;;;;;;;5014123;28;20052;-87
2023/10/05 07:29:18;;;;;;;0.20;0.00;;;;;;;;;;5008324;28;20034;-85
2023/10/05 07:31:44;;;;;;;0.20;0.10;;;;;;;;;;5029068;28;20120;-84
2023/10/05 07:34:10;;;;;;;0.20;0.10;;;;;;;;;;5027319;28;20051;-84
2023/10/05 07:36:47;;;;;;;0.20;0.10;;;;;;;;;;5008647;28;20037;-85
2023/10/05 07:39:38;;;;;;;0.20;0.10;;;;;;;;;;5012738;28;20042;-86
2023/10/05 07:42:10;;;;;;;0.20;0.10;;;;;;;;;;5012546;28;20033;-84
2023/10/05 07:44:43;;;;;;;0.20;0.05;;;;;;;;;;5025458;28;20088;-85
2023/10/05 07:47:15;;;;;;;0.20;0.10;;;;;;;;;;5011853;28;20038;-84
2023/10/05 07:49:43;;;;;;;0.20;0.00;;;;;;;;;;5024301;28;20128;-86
2023/10/05 07:52:20;;;;;;;0.20;0.00;;;;;;;;;;5023821;28;20059;-85
2023/10/05 07:54:51;;;;;;;0.20;0.10;;;;;;;;;;5043322;28;20148;-84
2023/10/05 07:57:29;;;;;;;0.20;0.00;;;;;;;;;;5012253;28;20060;-84
2023/10/05 08:00:06;;;;;;;0.20;0.00;;;;;;;;;;5025901;28;20493;-84
2023/10/05 08:02:40;;;;;;;0.20;0.00;;;;;;;;;;5009740;28;20049;-84
2023/10/05 08:05:11;;;;;;;0.20;0.03;;;;;;;;;;5017087;28;20554;-86
2023/10/05 08:07:40;;;;;;;0.20;0.10;;;;;;;;;;5006422;28;20033;-86
2023/10/05 08:10:33;;;;;;;0.20;0.10;;;;;;;;;;5008810;28;20026;-85
2023/10/05 08:16:07;;;;;;;0.20;0.10;;;;;;;;;;4990819;28;20049;-85
2023/10/05 08:18:39;;;;;;;0.20;0.00;;;;;;;;;;5025114;28;20061;-84
2023/10/05 08:21:08;;;;;;;0.20;0.03;;;;;;;;;;5022563;28;20049;-86
2023/10/05 08:23:35;;;;;;;0.45;0.30;;;;;;;;;;5004832;28;20046;-86
2023/10/05 08:26:01;;;;;;;0.20;0.10;;;;;;;;;;5013354;28;20409;-84
2023/10/05 08:28:27;;;;;;;0.20;0.10;;;;;;;;;;5003531;28;20087;-85
2023/10/05 08:31:06;;;;;;;2.05;0.52;;;;;;;;;;5011385;28;20041;-87
2023/10/05 08:33:35;;;;;;;0.20;0.00;;;;;;;;;;5024270;28;20052;-85
2023/10/05 08:36:08;;;;;;;0.55;0.20;;;;;;;;;;5022934;28;20049;-87
2023/10/05 08:38:37;;;;;;;0.20;0.17;;;;;;;;;;5021206;28;20049;-86
2023/10/05 08:41:07;;;;;;;1.75;0.73;;;;;;;;;;5009975;28;20033;-87
2023/10/05 08:43:40;;;;;;;0.20;0.10;;;;;;;;;;5023097;28;20045;-84
2023/10/05 08:46:10;;;;;;;;;;;;;;;;;;5025441;28;20037;-85
2023/10/05 08:48:37;;;;;;;1.48;0.75;;;;;;;;;;5020890;28;19916;-84
2023/10/05 08:51:10;;;;;;;1.27;0.80;;;;;;;;;;5004107;28;20037;-83
2023/10/05 08:53:50;;;;;;;0.20;0.00;;;;;;;;;;5011820;28;20045;-85
2023/10/05 08:56:17;;;;;;;1.60;0.30;;;;;;;;;;5011115;28;20037;-84
2023/10/05 08:58:45;;;;;;;0.20;0.10;;;;;;;;;;5009694;28;20300;-85
2023/10/05 09:01:25;;;;;;;0.45;0.25;;;;;;;;;;5010690;28;20045;-83
2023/10/05 09:04:01;;;;;;;0.20;0.00;;;;;;;;;;5008984;28;20124;-86
2023/10/05 09:06:27;;;;;;;0.20;0.00;;;;;;;;;;5021313;28;20515;-83
2023/10/05 09:09:07;;;;;;;0.75;0.63;;;;;;;;;;5008016;28;20669;-85
2023/10/05 09:11:33;;;;;;;0.20;0.00;;;;;;;;;;5014230;28;20091;-85
2023/10/05 09:14:13;;;;;;;0.20;0.10;;;;;;;;;;5007445;28;20087;-88
2023/10/05 09:16:43;;;;;;;0.20;0.00;;;;;;;;;;5020591;28;20607;-85
2023/10/05 09:19:13;;;;;;;0.20;0.20;;;;;;;;;;5006203;28;20442;-85
2023/10/05 09:21:44;;;;;;;0.20;0.10;;;;;;;;;;5021338;28;20475;-85
2023/10/05 09:24:20;;;;;;;0.20;0.10;;;;;;;;;;5024876;28;20124;-84
2023/10/05 09:26:52;;;;;;;0.20;0.10;;;;;;;;;;5008211;28;20128;-84
2023/10/05 09:29:21;;;;;;;0.30;0.30;;;;;;;;;;5009587;28;20025;-85
2023/10/05 09:31:51;;;;;;;0.20;0.00;;;;;;;;;;5008005;28;20219;-85
2023/10/05 09:34:38;;;;;;;0.55;0.55;;;;;;;;;;5009012;28;20048;-88
2023/10/05 09:37:07;;;;;;;0.20;0.10;;;;;;;;;;5018874;28;20087;-85
2023/10/05 09:39:44;;;;;;;0.25;0.15;;;;;;;;;;5020221;28;20132;-88
2023/10/05 09:42:22;;;;;;;0.20;0.00;;;;;;;;;;5022925;28;20111;-84
2023/10/05 09:44:52;;;;;;;0.20;0.10;;;;;;;;;;5005778;28;20033;-84
2023/10/05 09:47:21;;;;;;;0.20;0.10;;;;;;;;;;5004786;28;20040;-85
2023/10/05 09:49:51;;;;;;;0.20;0.03;;;;;;;;;;5008436;28;20132;-85
2023/10/05 09:52:19;;;;;;;0.20;0.10;;;;;;;;;;5004803;28;20038;-83
2023/10/05 09:54:47;;;;;;;0.20;0.00;;;;;;;;;;5035807;28;20053;-86
2023/10/05 09:57:14;;;;;;;0.20;0.10;;;;;;;;;;5020031;28;20111;-86
2023/10/05 09:59:57;;;;;;;0.20;0.10;;;;;;;;;;5023538;28;20048;-84
2023/10/05 10:02:25;;;;;;;;;;;;;;;;;;5034507;28;20040;-85
2023/10/05 10:04:52;;;;;;;0.20;0.10;;;;;;;;;;5039432;28;20322;-85
2023/10/05 10:07:26;;;;;;;0.22;0.15;;;;;;;;;;5022827;28;20072;-85
2023/10/05 10:10:04;;;;;;;0.20;0.00;;;;;;;;;;5023125;28;20413;-84
2023/10/05 10:12:33;;;;;;;0.20;0.10;;;;;;;;;;5025277;28;20041;-83
2023/10/05 10:15:00;;;;;;;0.20;0.00;;;;;;;;;;5016324;28;20172;-86
2023/10/05 10:17:32;;;;;;;0.20;0.10;;;;;;;;;;5004096;28;20135;-83
2023/10/05 10:20:28;;;;;;;0.20;0.00;;;;;;;;;;5021852;28;20528;-86
2023/10/05 10:22:55;;;;;;;0.20;0.10;;;;;;;;;;5020320;28;20037;-85
2023/10/05 10:25:38;;;;;;;0.20;0.00;;;;;;;;;;5012544;28;20050;-86
2023/10/05 10:28:49;;;;;;;0.20;0.10;;;;;;;;;;5020014;28;20305;-85
2023/10/05 10:31:19;;;;;;;0.20;0.10;;;;;;;;;;5023926;28;20040;-84
2023/10/05 10:33:51;;;;;;;0.22;0.20;;;;;;;;;;5024450;28;20084;-84
2023/10/05 10:36:40;;;;;;;0.20;0.20;;;;;;;;;;5024265;28;20042;-84
2023/10/05 10:39:22;;;;;;;0.20;0.10;;;;;;;;;;5015561;28;20133;-85
2023/10/05 10:42:12;;;;;;;0.20;0.00;;;;;;;;;;5021978;28;20051;-85
2023/10/05 10:44:56;;;;;;;0.20;0.10;;;;;;;;;;5017184;28;20120;-84
2023/10/05 10:47:24;;;;;;;0.20;0.05;;;;;;;;;;5017653;28;20561;-87
2023/10/05 10:49:59;;;;;;;0.20;0.10;;;;;;;;;;5007510;28;20049;-82
2023/10/05 10:52:26;;;;;;;0.20;0.05;;;;;;;;;;5024454;28;20045;-84
2023/10/05 10:54:54;;;;;;;0.73;0.73;;;;;;;;;;5021470;28;20056;-84
2023/10/05 10:57:22;;;;;;;0.20;0.10;;;;;;;;;;5009447;28;20037;-82
2023/10/05 10:59:56;;;;;;;0.20;0.13;;;;;;;;;;5022035;28;20049;-83
2023/10/05 11:02:23;;;;;;;0.20;0.00;;;;;;;;;;5007388;28;20044;-85
2023/10/05 11:04:49;;;;;;;1.33;1.23;;;;;;;;;;5015603;28;20125;-83
2023/10/05 11:07:16;;;;;;;0.20;0.10;;;;;;;;;;5005958;28;20042;-84
2023/10/05 11:09:54;;;;;;;0.20;0.10;;;;;;;;;;5020651;28;20042;-85
2023/10/05 11:12:23;;;;;;;0.20;0.00;;;;;;;;;;5025510;28;20037;-87
2023/10/05 11:15:00;;;;;;;0.20;0.00;;;;;;;;;;5023034;28;20516;-85
2023/10/05 11:17:43;;;;;;;0.20;0.00;;;;;;;;;;5019726;28;20029;-84
2023/10/05 11:20:24;;;;;;;0.20;0.08;;;;;;;;;;5005251;28;20045;-85
2023/10/05 11:23:01;;;;;;;0.20;0.10;;;;;;;;;;5040271;28;20099;-83
2023/10/05 11:25:36;;;;;;;0.20;0.10;;;;;;;;;;5019345;28;20413;-84
2023/10/05 11:28:07;;;;;;;0.20;0.00;;;;;;;;;;5026915;28;20041;-86
2023/10/05 11:30:47;;;;;;;0.20;0.13;;;;;;;;;;5021974;28;20037;-84
2023/10/05 11:33:15;;;;;;;0.20;0.10;;;;;;;;;;5009314;28;20515;-84
2023/10/05 11:35:55;;;;;;;0.40;0.40;;;;;;;;;;5007097;28;20160;-84
2023/10/05 11:38:26;;;;;;;0.20;0.00;;;;;;;;;;5005249;28;20033;-84
2023/10/05 11:40:56;;;;;;;0.20;0.10;;;;;;;;;;5020908;28;20067;-86
2023/10/05 11:43:22;;;;;;;0.20;0.10;;;;;;;;;;5008659;28;20033;-85
2023/10/05 11:45:58;;;;;;;0.20;0.20;;;;;;;;;;5009670;28;20103;-86
2023/10/05 11:48:48;;;;;;;0.30;0.22;;;;;;;;;;5034516;28;20049;-85
2023/10/05 11:51:16;;;;;;;0.20;0.10;;;;;;;;;;5005791;28;20034;-86
2023/10/05 11:53:43;;;;;;;0.20;0.10;;;;;;;;;;5006487;28;20048;-83
2023/10/05 11:56:09;;;;;;;0.20;0.10;;;;;;;;;;5022374;28;20060;-85
2023/10/05 11:58:41;;;;;;;0.20;0.03;;;;;;;;;;5012034;28;20048;-85
2023/10/05 12:01:08;;;;;;;0.35;0.35;;;;;;;;;;5035401;23;20122;-80
2023/10/05 12:03:34;;;;;;;0.20;0.00;;;;;;;;;;4990481;28;20034;-81
2023/10/05 12:06:00;;;;;;;0.20;0.00;;;;;;;;;;4991038;28;20039;-79
2023/10/05 12:08:30;;;;;;;0.20;0.20;;;;;;;;;;4988864;28;20775;-82
2023/10/05 12:10:59;;;;;;;0.63;0.50;;;;;;;;;;4991752;28;20046;-82
2023/10/05 12:13:29;;;;;;;0.20;0.10;;;;;;;;;;4971249;28;20043;-82
2023/10/05 12:15:58;;;;;;;0.80;0.80;;;;;;;;;;4983835;28;20478;-80
2023/10/05 12:18:24;;;;;;;0.20;0.00;;;;;;;;;;4987675;28;20050;-82
2023/10/05 12:20:50;;;;;;;0.55;0.38;;;;;;;;;;4971840;28;20046;-79
2023/10/05 12:23:17;;;;;;;0.20;0.00;;;;;;;;;;4989239;28;20140;-81
2023/10/05 12:25:44;;;;;;;0.25;0.20;;;;;;;;;;4984719;28;20105;-80
2023/10/05 12:28:11;;;;;;;0.20;0.10;;;;;;;;;;4989765;28;20046;-80
2023/10/05 12:30:39;;;;;;;0.20;0.00;;;;;;;;;;4976992;28;20045;-80
2023/10/05 12:33:08;;;;;;;0.20;0.15;;;;;;;;;;4990069;28;20054;-81
2023/10/05 12:35:37;;;;;;;0.20;0.10;;;;;;;;;;4987140;28;20035;-83
2023/10/05 12:38:11;;;;;;;0.28;0.10;;;;;;;;;;4972282;28;20133;-82
2023/10/05 12:40:40;;;;;;;0.20;0.10;;;;;;;;;;4989098;28;20057;-81
2023/10/05 12:43:07;;;;;;;0.40;0.40;;;;;;;;;;4972972;28;20047;-80
2023/10/05 12:45:33;;;;;;;0.20;0.00;;;;;;;;;;4971123;28;20053;-81
2023/10/05 12:47:59;;;;;;;26.05;0.73;;;;;;;;;;4988541;28;20035;-81
2023/10/05 12:50:27;;;;;;;0.20;0.15;;;;;;;;;;4986646;28;20048;-82
2023/10/05 12:52:54;;;;;;;0.20;0.10;;;;;;;;;;4986536;28;20537;-80
2023/10/05 12:55:23;;;;;;;0.20;0.10;;;;;;;;;;4968792;28;20121;-80
2023/10/05 12:57:53;;;;;;;0.20;0.10;;;;;;;;;;4981791;28;20045;-81
2023/10/05 13:00:31;;;;;;;0.20;0.17;;;;;;;;;;4988391;28;20065;-81
2023/10/05 13:03:00;;;;;;;0.20;0.10;;;;;;;;;;4986879;28;20057;-80
2023/10/05 13:05:31;;;;;;;0.20;0.10;;;;;;;;;;4977537;28;20529;-80
2023/10/05 13:08:01;;;;;;;0.20;0.10;;;;;;;;;;4988487;28;20069;-81
2023/10/05 13:10:32;;;;;;;3.00;0.85;;;;;;;;;;4989588;28;20058;-81
2023/10/05 13:13:01;;;;;;;0.20;0.20;;;;;;;;;;4987037;28;20045;-81
2023/10/05 13:15:33;;;;;;;0.30;0.30;;;;;;;;;;4972641;28;20074;-81
2023/10/05 13:18:15;;;;;;;0.20;0.10;;;;;;;;;;4965336;28;20092;-81
2023/10/05 13:20:43;;;;;;;0.20;0.20;;;;;;;;;;4982291;28;20392;-79
2023/10/05 13:23:12;;;;;;;0.20;0.00;;;;;;;;;;4988709;28;20030;-80
2023/10/05 13:25:43;;;;;;;0.40;0.20;;;;;;;;;;4989354;28;20146;-81
2023/10/05 13:28:13;;;;;;;0.20;0.00;;;;;;;;;;4989015;28;20482;-80
2023/10/05 13:30:43;;;;;;;0.20;0.10;;;;;;;;;;4972922;28;20054;-81
2023/10/05 13:33:22;;;;;;;0.20;0.20;;;;;;;;;;4987494;28;20042;-81
2023/10/05 13:35:50;;;;;;;0.20;0.10;;;;;;;;;;4972775;28;20045;-82
2023/10/05 13:38:17;;;;;;;0.20;0.10;;;;;;;;;;4983361;28;20128;-82
2023/10/05 13:43:29;;;;;;;0.20;0.10;;;;;;;;;;4986483;28;20038;-82
2023/10/05 13:45:56;;;;;;;0.30;0.20;;;;;;;;;;4986882;28;20042;-81
2023/10/05 13:48:22;;;;;;;0.20;0.00;;;;;;;;;;4987538;28;20041;-82
2023/10/05 13:50:51;;;;;;;0.35;0.08;;;;;;;;;;4987251;28;20053;-80
2023/10/05 13:53:18;;;;;;;0.20;0.00;;;;;;;;;;4986424;28;20042;-80
2023/10/05 13:55:45;;;;;;;0.20;0.10;;;;;;;;;;4989465;28;20129;-81
2023/10/05 13:58:14;;;;;;;0.20;0.10;;;;;;;;;;4983748;28;20115;-80
2023/10/05 14:00:41;;;;;;;0.20;0.10;;;;;;;;;;4985411;28;20061;-81
2023/10/05 14:03:08;;;;;;;0.20;0.00;;;;;;;;;;4994210;28;20061;-82
2023/10/05 14:05:34;;;;;;;0.20;0.10;;;;;;;;;;4984756;28;20137;-81
2023/10/05 14:08:02;;;;;;;0.20;0.00;;;;;;;;;;4985467;28;20062;-79
2023/10/05 14:10:28;;;;;;;0.20;0.00;;;;;;;;;;4986070;28;20035;-81
2023/10/05 14:12:55;;;;;;;0.38;0.38;;;;;;;;;;4983033;28;20046;-81
2023/10/05 14:15:22;;;;;;;0.30;0.20;;;;;;;;;;4977007;28;20039;-81
2023/10/05 14:17:49;;;;;;;0.20;0.00;;;;;;;;;;4985831;28;20042;-80
2023/10/05 14:20:16;;;;;;;0.20;0.00;;;;;;;;;;4986989;28;20395;-82
2023/10/05 14:22:44;;;;;;;0.20;0.10;;;;;;;;;;4979527;28;20094;-79
2023/10/05 14:25:17;;;;;;;0.20;0.10;;;;;;;;;;4971766;28;20054;-83
2023/10/05 14:27:48;;;;;;;0.20;0.20;;;;;;;;;;4988105;28;20054;-82
2023/10/05 14:30:17;;;;;;;0.20;0.10;;;;;;;;;;4987198;28;20525;-81
2023/10/05 14:32:43;;;;;;;0.20;0.00;;;;;;;;;;4985986;28;20133;-81
2023/10/05 14:35:10;;;;;;;0.20;0.03;;;;;;;;;;4971439;28;20705;-81
2023/10/05 14:37:42;;;;;;;0.20;0.13;;;;;;;;;;4987142;28;20526;-81
2023/10/05 14:40:21;;;;;;;0.20;0.10;;;;;;;;;;4982685;28;20038;-82
2023/10/05 14:42:52;;;;;;;0.20;0.10;;;;;;;;;;4984701;28;20042;-83
2023/10/05 14:45:21;;;;;;;0.20;0.10;;;;;;;;;;4984058;28;20117;-83
2023/10/05 14:47:49;;;;;;;0.20;0.08;;;;;;;;;;4988838;28;20038;-81
2023/10/05 14:50:17;;;;;;;0.20;0.15;;;;;;;;;;4991035;28;20050;-82
2023/10/05 14:52:48;;;;;;;0.22;0.03;;;;;;;;;;4993893;28;20275;-83
2023/10/05 14:55:14;;;;;;;0.20;0.00;;;;;;;;;;4994030;28;20077;-81
2023/10/05 14:57:40;;;;;;;0.30;0.10;;;;;;;;;;4991503;28;20054;-81
2023/10/05 15:00:10;;;;;;;0.20;0.00;;;;;;;;;;4999441;28;20106;-82
2023/10/05 15:02:37;;;;;;;0.30;0.25;;;;;;;;;;5000341;28;20257;-82
2023/10/05 15:05:03;;;;;;;0.25;0.10;;;;;;;;;;4984661;28;20043;-82
2023/10/05 15:07:30;;;;;;;0.20;0.08;;;;;;;;;;4983850;28;22598;-81
2023/10/05 15:09:57;;;;;;;0.20;0.00;;;;;;;;;;4999232;28;20227;-82
2023/10/05 15:12:23;;;;;;;0.20;0.10;;;;;;;;;;4998294;28;20042;-83
2023/10/05 15:14:49;;;;;;;0.20;0.10;;;;;;;;;;4985183;28;20050;-81
2023/10/05 15:17:15;;;;;;;0.20;0.10;;;;;;;;;;5001690;28;20042;-82
2023/10/05 15:19:42;;;;;;;0.20;0.20;;;;;;;;;;5003638;28;20458;-81
2023/10/05 15:22:09;;;;;;;0.43;0.43;;;;;;;;;;5001825;28;20089;-82
2023/10/05 15:24:35;;;;;;;0.25;0.05;;;;;;;;;;5001898;28;20102;-82
2023/10/05 15:27:03;;;;;;;0.20;0.00;;;;;;;;;;4979311;28;20117;-79
2023/10/05 15:29:29;;;;;;;0.20;0.10;;;;;;;;;;5012126;28;20094;-82
2023/10/05 15:31:56;;;;;;;0.20;0.00;;;;;;;;;;4976667;28;20053;-80
2023/10/05 15:34:22;;;;;;;0.20;0.00;;;;;;;;;;4988998;28;20046;-79
2023/10/05 15:36:54;;;;;;;0.20;0.10;;;;;;;;;;4992558;28;20052;-81
2023/10/05 15:39:20;;;;;;;0.50;0.45;;;;;;;;;;4990572;28;20490;-80